Time;durP1;ratioP1;P1;durP2;ratioP2;P2;SDS_P1;SDS_P2;PMS_P1;PMS_P2;Temp;Humidity;BMP_temperature;BMP_pressure;BME280_temperature;BME280_humidity;BME280_pressure;Samples;Min_cycle;Max_cycle;Signal;HPM_P1;HPM_P2
2023/07/17 00:01:56;;;;;;;48.25;43.83;;;665.60;2432.00;;;;;;5090428;28;20024;-61
2023/07/17 00:04:22;;;;;;;50.30;45.65;;;665.60;2432.00;;;;;;5091179;28;20467;-61
2023/07/17 00:06:48;;;;;;;46.67;42.38;;;665.60;2432.00;;;;;;5090758;28;20020;-60
2023/07/17 00:09:13;;;;;;;47.20;42.75;;;640.90;2432.00;;;;;;5090919;28;20020;-60
2023/07/17 00:11:39;;;;;;;47.88;43.40;;;640.90;2432.00;;;;;;5090731;28;20073;-60
2023/07/17 00:14:05;;;;;;;46.35;42.33;;;640.90;2432.00;;;;;;5091205;28;20063;-61
2023/07/17 00:16:30;;;;;;;46.75;42.45;;;640.80;2432.00;;;;;;5090979;28;20527;-60
2023/07/17 00:18:56;;;;;;;48.42;43.97;;;640.90;2432.00;;;;;;5090667;28;20379;-61
2023/07/17 00:21:22;;;;;;;48.75;44.05;;;640.90;2432.00;;;;;;5090964;28;20032;-61
2023/07/17 00:23:47;;;;;;;48.30;43.83;;;640.80;2432.00;;;;;;5090465;28;20024;-61
2023/07/17 00:26:13;;;;;;;47.03;42.88;;;640.70;2432.00;;;;;;5091029;28;20382;-60
2023/07/17 00:28:39;;;;;;;49.65;45.13;;;640.70;2432.00;;;;;;5090352;28;20020;-62
2023/07/17 00:31:05;;;;;;;49.17;44.88;;;640.70;2432.00;;;;;;5090445;28;20054;-61
2023/07/17 00:33:30;;;;;;;46.80;42.63;;;640.60;2432.00;;;;;;5090629;28;20458;-60
2023/07/17 00:35:56;;;;;;;44.28;40.33;;;640.70;2432.00;;;;;;5090245;28;20030;-60
2023/07/17 00:38:22;;;;;;;47.35;42.92;;;640.70;2432.00;;;;;;5090728;28;20090;-60
2023/07/17 00:40:48;;;;;;;49.10;44.58;;;640.70;2432.00;;;;;;5089874;28;20020;-60
2023/07/17 00:43:13;;;;;;;45.80;41.65;;;640.70;2432.00;;;;;;5090540;28;20161;-60
2023/07/17 00:45:44;;;;;;;46.08;41.85;;;640.70;2432.00;;;;;;5090431;28;20429;-60
2023/07/17 00:48:10;;;;;;;45.97;41.78;;;640.70;2432.00;;;;;;5089731;28;20071;-60
2023/07/17 00:50:37;;;;;;;46.15;42.08;;;640.70;2432.00;;;;;;5089836;28;20059;-60
2023/07/17 00:53:03;;;;;;;45.50;41.25;;;640.70;2432.00;;;;;;5090025;28;20074;-59
2023/07/17 00:55:30;;;;;;;45.42;41.35;;;640.70;2432.00;;;;;;5090205;28;20024;-60
2023/07/17 00:57:56;;;;;;;43.13;39.40;;;640.70;2432.00;;;;;;5090064;28;20117;-61
2023/07/17 01:00:23;;;;;;;42.35;38.53;;;640.70;2432.00;;;;;;5090456;28;20441;-60
2023/07/17 01:02:52;;;;;;;43.22;39.20;;;640.70;2432.00;;;;;;5088054;28;20028;-60
2023/07/17 01:05:17;;;;;;;43.42;39.22;;;640.70;2432.00;;;;;;5089539;28;20405;-61
2023/07/17 01:07:43;;;;;;;42.53;38.63;;;640.70;2432.00;;;;;;5089596;28;20068;-59
2023/07/17 01:10:09;;;;;;;43.55;39.70;;;640.70;2432.00;;;;;;5089779;28;20024;-59
2023/07/17 01:12:36;;;;;;;41.58;38.05;;;640.70;2432.00;;;;;;5089558;28;20039;-62
2023/07/17 01:15:03;;;;;;;46.75;40.70;;;640.70;2432.00;;;;;;5090170;28;20016;-59
2023/07/17 01:17:29;;;;;;;45.15;40.80;;;640.70;2432.00;;;;;;5089452;28;20060;-59
2023/07/17 01:19:54;;;;;;;43.72;39.58;;;640.70;2432.00;;;;;;5089772;28;20078;-60
2023/07/17 01:22:28;;;;;;;44.90;40.65;;;640.60;2432.00;;;;;;5089369;28;20359;-59
2023/07/17 01:24:54;;;;;;;46.40;41.97;;;640.60;2432.00;;;;;;5089834;28;20504;-60
2023/07/17 01:27:20;;;;;;;46.08;41.60;;;640.60;2432.00;;;;;;5089437;28;20057;-59
2023/07/17 01:29:46;;;;;;;44.03;40.05;;;640.50;2432.00;;;;;;5089426;28;20374;-60
2023/07/17 01:32:12;;;;;;;45.03;40.78;;;640.40;2432.00;;;;;;5089632;28;20036;-59
2023/07/17 01:34:38;;;;;;;46.17;41.72;;;640.40;2432.00;;;;;;5089385;28;20047;-59
2023/07/17 01:37:05;;;;;;;45.95;41.85;;;640.20;2432.00;;;;;;5089406;28;20470;-60
2023/07/17 01:39:31;;;;;;;45.83;41.58;;;640.20;2432.00;;;;;;5089719;28;20098;-59
2023/07/17 01:41:56;;;;;;;46.67;42.17;;;640.20;2432.00;;;;;;5089011;28;20518;-62
2023/07/17 01:44:27;;;;;;;43.38;39.47;;;640.40;2432.00;;;;;;5089350;28;20127;-60
2023/07/17 01:46:56;;;;;;;44.22;40.35;;;640.40;2432.00;;;;;;5089115;28;20052;-60
2023/07/17 01:49:22;;;;;;;44.33;40.30;;;640.40;2432.00;;;;;;5089435;28;20028;-60
2023/07/17 01:51:48;;;;;;;45.35;41.10;;;640.40;2432.00;;;;;;5088203;28;20028;-60
2023/07/17 01:54:13;;;;;;;43.65;39.58;;;640.40;2432.00;;;;;;5089500;28;20489;-60
2023/07/17 01:56:39;;;;;;;44.17;39.90;;;640.40;2432.00;;;;;;5089234;28;20031;-60
2023/07/17 01:59:05;;;;;;;44.90;40.85;;;640.40;2432.00;;;;;;5089113;28;20016;-61
2023/07/17 02:01:33;;;;;;;45.08;40.90;;;640.40;2432.00;;;;;;5089007;28;20461;-60
2023/07/17 02:03:59;;;;;;;45.15;41.05;;;640.20;2432.00;;;;;;5089003;28;20020;-60
2023/07/17 02:06:25;;;;;;;46.20;41.92;;;640.40;2432.00;;;;;;5088962;28;20020;-61
2023/07/17 02:08:51;;;;;;;47.60;42.95;;;640.20;2432.00;;;;;;5089077;28;20090;-60
2023/07/17 02:11:17;;;;;;;44.78;40.65;;;640.00;2432.00;;;;;;5088710;28;20048;-60
2023/07/17 02:13:43;;;;;;;46.65;42.25;;;640.00;2432.00;;;;;;5089426;28;20103;-60
2023/07/17 02:16:08;;;;;;;44.17;39.97;;;615.30;2432.00;;;;;;5088711;28;20016;-60
2023/07/17 02:18:34;;;;;;;44.85;40.47;;;615.20;2432.00;;;;;;5088911;28;20029;-59
2023/07/17 02:21:00;;;;;;;43.33;39.40;;;615.30;2432.00;;;;;;5088819;28;20103;-59
2023/07/17 02:23:26;;;;;;;44.47;40.40;;;615.30;2432.00;;;;;;5088963;28;20024;-59
2023/07/17 02:25:52;;;;;;;45.80;41.28;;;615.20;2432.00;;;;;;5088802;28;20095;-59
2023/07/17 02:28:17;;;;;;;43.28;39.28;;;615.10;2432.00;;;;;;5088626;28;20119;-60
2023/07/17 02:30:43;;;;;;;42.85;38.95;;;615.10;2432.00;;;;;;5089020;28;20031;-60
2023/07/17 02:33:09;;;;;;;43.35;39.38;;;615.10;2432.00;;;;;;5088679;28;20025;-60
2023/07/17 02:35:35;;;;;;;42.10;38.30;;;615.10;2432.00;;;;;;5088721;28;20103;-60
2023/07/17 02:38:00;;;;;;;45.47;41.17;;;615.10;2432.00;;;;;;5088903;28;20056;-60
2023/07/17 02:40:26;;;;;;;45.05;40.65;;;615.10;2432.00;;;;;;5088454;28;20020;-60
2023/07/17 02:42:52;;;;;;;43.00;38.90;;;615.10;2432.00;;;;;;5088662;28;20055;-60
2023/07/17 02:45:18;;;;;;;46.83;42.42;;;615.10;2432.00;;;;;;5087113;28;20487;-60
2023/07/17 02:47:43;;;;;;;46.88;42.65;;;615.10;2432.00;;;;;;5088547;28;20062;-60
2023/07/17 02:50:09;;;;;;;45.58;41.30;;;615.00;2432.00;;;;;;5088751;28;20032;-60
2023/07/17 02:52:36;;;;;;;44.53;40.05;;;615.10;2432.00;;;;;;5088486;28;20127;-60
2023/07/17 02:55:04;;;;;;;44.15;40.05;;;615.00;2432.00;;;;;;5088619;28;20089;-60
2023/07/17 02:57:36;;;;;;;46.30;41.75;;;615.00;2432.00;;;;;;5088458;28;20433;-60
2023/07/17 03:00:14;;;;;;;45.53;41.33;;;615.10;2432.00;;;;;;5088778;28;20016;-60
2023/07/17 03:02:41;;;;;;;45.22;40.88;;;615.00;2432.00;;;;;;5088622;28;20039;-60
2023/07/17 03:05:08;;;;;;;44.30;40.13;;;615.00;2432.00;;;;;;5091733;28;20039;-62
2023/07/17 03:07:37;;;;;;;43.05;39.10;;;615.00;2432.00;;;;;;5092378;28;20027;-59
2023/07/17 03:10:03;;;;;;;42.42;38.10;;;614.90;2432.00;;;;;;5079166;28;20023;-60
2023/07/17 03:12:29;;;;;;;44.85;40.85;;;614.90;2432.00;;;;;;5091675;28;20052;-60
2023/07/17 03:14:55;;;;;;;43.53;39.60;;;615.00;2432.00;;;;;;5091841;28;20044;-60
2023/07/17 03:17:20;;;;;;;45.40;41.35;;;614.90;2432.00;;;;;;5091887;28;20035;-60
2023/07/17 03:19:46;;;;;;;44.20;39.85;;;615.00;2432.00;;;;;;5091820;28;20435;-61
2023/07/17 03:22:12;;;;;;;44.38;40.10;;;615.00;2432.00;;;;;;5091916;28;20028;-61
2023/07/17 03:24:37;;;;;;;42.75;38.63;;;615.00;2432.00;;;;;;5091747;28;20032;-60
2023/07/17 03:27:03;;;;;;;43.42;39.38;;;615.00;2432.00;;;;;;5091899;28;20036;-60
2023/07/17 03:29:29;;;;;;;43.67;39.63;;;615.10;2432.00;;;;;;5091552;28;20016;-60
2023/07/17 03:31:55;;;;;;;42.58;38.63;;;615.10;2432.00;;;;;;5091749;28;20040;-60
2023/07/17 03:34:20;;;;;;;45.53;41.17;;;615.10;2432.00;;;;;;5091607;28;20374;-60
2023/07/17 03:36:46;;;;;;;43.70;39.67;;;615.10;2432.00;;;;;;5091366;28;20086;-60
2023/07/17 03:39:12;;;;;;;42.83;38.72;;;615.10;2432.00;;;;;;5091858;28;20428;-61
2023/07/17 03:41:38;;;;;;;43.33;39.42;;;615.20;2432.00;;;;;;5091479;28;20055;-60
2023/07/17 03:44:05;;;;;;;42.72;38.60;;;615.30;2432.00;;;;;;5091345;28;20024;-60
2023/07/17 03:46:31;;;;;;;43.88;39.67;;;615.30;2432.00;;;;;;5091267;28;20031;-61
2023/07/17 03:48:57;;;;;;;43.90;39.90;;;615.30;2432.00;;;;;;5077692;28;20024;-61
2023/07/17 03:51:23;;;;;;;44.88;40.58;;;640.00;2432.00;;;;;;5091345;28;20040;-61
2023/07/17 03:53:50;;;;;;;41.20;37.55;;;640.00;2432.00;;;;;;5091400;28;20016;-60
2023/07/17 03:56:16;;;;;;;41.72;37.80;;;640.10;2432.00;;;;;;5091028;28;20035;-61
2023/07/17 03:58:42;;;;;;;42.22;38.40;;;640.20;2432.00;;;;;;5091439;28;20020;-61
2023/07/17 04:01:07;;;;;;;39.72;35.97;;;640.40;2432.00;;;;;;5090840;28;20028;-61
2023/07/17 04:03:33;;;;;;;38.80;35.05;;;640.50;2432.00;;;;;;5091036;28;20024;-59
2023/07/17 04:05:59;;;;;;;39.00;35.33;;;640.50;2432.00;;;;;;5090872;28;20474;-61
2023/07/17 04:08:24;;;;;;;40.55;36.85;;;640.60;2432.00;;;;;;5091124;28;20082;-60
2023/07/17 04:10:50;;;;;;;41.58;37.47;;;640.90;2432.00;;;;;;5090882;28;20082;-60
2023/07/17 04:13:16;;;;;;;40.00;35.80;;;640.80;2432.00;;;;;;5090817;28;20016;-61
2023/07/17 04:15:41;;;;;;;40.17;36.28;;;640.80;2432.00;;;;;;5090618;28;20032;-60
2023/07/17 04:18:07;;;;;;;39.20;35.72;;;665.60;2432.00;;;;;;5090275;28;20059;-61
2023/07/17 04:20:33;;;;;;;40.40;36.58;;;665.60;2432.00;;;;;;5091079;28;20024;-61
2023/07/17 04:22:58;;;;;;;39.72;36.13;;;665.60;2432.00;;;;;;5090598;28;20023;-60
2023/07/17 04:25:25;;;;;;;38.95;35.33;;;665.80;2432.00;;;;;;5090215;28;20069;-60
2023/07/17 04:27:50;;;;;;;40.15;36.03;;;665.90;2432.00;;;;;;5090591;28;20413;-60
2023/07/17 04:30:16;;;;;;;38.17;34.85;;;665.90;2432.00;;;;;;5088892;28;20042;-59
2023/07/17 04:32:42;;;;;;;40.20;36.60;;;666.00;2432.00;;;;;;5090411;28;20059;-59
2023/07/17 04:35:08;;;;;;;42.38;38.15;;;666.20;2432.00;;;;;;5090257;28;20386;-59
2023/07/17 04:37:33;;;;;;;40.92;36.63;;;666.20;2432.00;;;;;;5090492;28;20074;-59
2023/07/17 04:39:59;;;;;;;39.47;35.78;;;666.30;2432.00;;;;;;5090280;28;20054;-60
2023/07/17 04:42:25;;;;;;;36.03;32.65;;;691.20;2432.00;;;;;;5089443;28;20035;-65
2023/07/17 04:44:51;;;;;;;38.28;34.75;;;691.40;2432.00;;;;;;5090360;28;20020;-64
2023/07/17 04:47:16;;;;;;;38.50;34.83;;;717.70;2432.00;;;;;;5089722;28;20048;-61
2023/07/17 04:49:42;;;;;;;35.38;32.15;;;794.20;2432.00;;;;;;5090334;28;20029;-60
2023/07/17 04:52:08;;;;;;;32.17;29.27;;;845.40;2355.20;;;;;;5089783;28;20093;-58
2023/07/17 04:54:34;;;;;;;34.42;30.95;;;896.60;2099.20;;;;;;5088498;28;20035;-59
2023/07/17 04:56:59;;;;;;;32.35;29.58;;;921.70;2022.40;;;;;;5090107;28;20061;-73
2023/07/17 04:59:25;;;;;;;33.17;30.27;;;922.50;1920.00;;;;;;5089828;28;20110;-71
2023/07/17 05:01:51;;;;;;;32.85;30.00;;;947.90;1843.20;;;;;;5081931;28;20036;-58
2023/07/17 05:04:16;;;;;;;30.08;27.30;;;973.30;1792.00;;;;;;5069543;28;20024;-59
2023/07/17 05:06:42;;;;;;;30.17;27.77;;;973.70;1715.20;;;;;;5069831;28;20478;-59
2023/07/17 05:09:08;;;;;;;29.70;27.23;;;998.40;1715.20;;;;;;5069630;28;20063;-59
2023/07/17 05:11:33;;;;;;;27.38;25.08;;;999.10;1664.00;;;;;;5069573;28;20048;-59
2023/07/17 05:13:59;;;;;;;30.05;27.60;;;1024.50;1587.20;;;;;;5071188;28;20112;-74
2023/07/17 05:16:25;;;;;;;29.67;26.98;;;1024.70;1561.60;;;;;;5069313;28;20025;-60
2023/07/17 05:18:50;;;;;;;28.60;26.35;;;1049.90;1561.60;;;;;;5088722;28;20032;-60
2023/07/17 05:21:17;;;;;;;29.80;27.23;;;1050.00;1536.00;;;;;;5084160;28;20033;-62
2023/07/17 05:23:42;;;;;;;28.75;26.45;;;1050.00;1536.00;;;;;;5069331;28;20028;-61
2023/07/17 05:26:08;;;;;;;29.20;26.75;;;1049.80;1561.60;;;;;;5068954;28;20119;-62
2023/07/17 05:28:34;;;;;;;31.65;28.23;;;1075.40;1510.40;;;;;;5068740;28;20237;-61
2023/07/17 05:31:00;;;;;;;29.50;26.83;;;1075.80;1459.20;;;;;;5069344;28;20036;-63
2023/07/17 05:33:26;;;;;;;30.35;27.38;;;1101.10;1459.20;;;;;;5069260;28;20024;-59
2023/07/17 05:35:52;;;;;;;28.48;25.98;;;1126.50;1433.60;;;;;;5069275;28;20021;-62
2023/07/17 05:38:18;;;;;;;28.35;25.95;;;1127.10;1382.40;;;;;;5069259;28;20374;-60
2023/07/17 05:40:44;;;;;;;27.98;25.38;;;1126.70;1408.00;;;;;;5069307;28;20017;-63
2023/07/17 05:43:10;;;;;;;28.40;26.08;;;1127.10;1382.40;;;;;;5082811;28;20062;-63
2023/07/17 05:45:36;;;;;;;28.88;26.42;;;1152.00;1356.80;;;;;;5075839;28;20024;-62
2023/07/17 05:48:02;;;;;;;28.63;25.83;;;1152.00;1356.80;;;;;;5072096;28;20048;-61
2023/07/17 05:50:28;;;;;;;27.90;25.80;;;1152.10;1356.80;;;;;;5068757;28;20058;-62
2023/07/17 05:52:54;;;;;;;29.40;27.10;;;1178.00;1280.00;;;;;;5069115;28;20080;-62
2023/07/17 05:55:19;;;;;;;30.13;27.67;;;1152.60;1331.20;;;;;;5087604;28;20052;-62
2023/07/17 05:57:45;;;;;;;29.40;27.17;;;1152.60;1331.20;;;;;;5068825;28;20368;-63
2023/07/17 06:00:14;;;;;;;27.50;25.52;;;1177.60;1305.60;;;;;;5069181;28;20079;-69
2023/07/17 06:02:43;;;;;;;28.88;26.35;;;1178.00;1280.00;;;;;;5070614;28;20020;-62
2023/07/17 06:05:10;;;;;;;28.80;26.80;;;1177.70;1305.60;;;;;;5068166;28;20025;-62
2023/07/17 06:07:37;;;;;;;27.08;25.02;;;1203.60;1254.40;;;;;;5068137;28;20506;-61
2023/07/17 06:10:03;;;;;;;26.75;24.77;;;1229.40;1203.20;;;;;;5074221;28;20020;-60
2023/07/17 06:12:29;;;;;;;30.45;27.92;;;1254.60;1203.20;;;;;;5088445;28;20040;-60
2023/07/17 06:14:55;;;;;;;29.58;27.33;;;1254.40;1228.80;;;;;;5088797;28;20382;-60
2023/07/17 06:17:22;;;;;;;30.80;28.40;;;1255.30;1177.60;;;;;;5088622;28;20459;-60
2023/07/17 06:19:47;;;;;;;30.90;28.67;;;1255.10;1152.00;;;;;;5088737;28;20016;-63
2023/07/17 06:22:13;;;;;;;30.27;27.83;;;1280.50;1126.40;;;;;;5084320;28;20028;-74
2023/07/17 06:24:39;;;;;;;29.48;27.42;;;1280.90;1126.40;;;;;;5076242;28;20465;-75
2023/07/17 06:27:05;;;;;;;31.98;29.75;;;1280.50;1152.00;;;;;;5077575;28;20355;-63
2023/07/17 06:29:30;;;;;;;30.58;28.27;;;1280.50;1126.40;;;;;;5088055;28;20103;-63
2023/07/17 06:31:56;;;;;;;31.33;29.15;;;1280.70;1126.40;;;;;;5068534;28;20074;-62
2023/07/17 06:34:22;;;;;;;29.25;27.25;;;1280.90;1100.80;;;;;;5082539;28;20034;-61
2023/07/17 06:36:51;;;;;;;31.58;29.00;;;1280.20;1126.40;;;;;;5088381;28;20050;-61
2023/07/17 06:39:17;;;;;;;30.60;28.40;;;1305.60;1100.80;;;;;;5076911;28;20024;-61
2023/07/17 06:41:42;;;;;;;31.48;28.67;;;1306.00;1100.80;;;;;;5092463;28;20028;-61
2023/07/17 06:44:08;;;;;;;29.65;27.35;;;1305.90;1100.80;;;;;;5092089;28;20056;-62
2023/07/17 06:46:34;;;;;;;31.67;29.17;;;1305.70;1100.80;;;;;;5092127;28;20035;-63
2023/07/17 06:49:00;;;;;;;32.15;29.67;;;1280.70;1100.80;;;;;;5092339;28;20066;-63
2023/07/17 06:51:25;;;;;;;29.63;26.98;;;1306.00;1075.20;;;;;;5092266;28;20075;-62
2023/07/17 06:53:53;;;;;;;31.60;29.23;;;1305.70;1075.20;;;;;;5092084;28;20021;-63
2023/07/17 06:56:18;;;;;;;32.70;30.27;;;1306.00;1075.20;;;;;;5091909;28;20024;-63
2023/07/17 06:58:44;;;;;;;32.60;30.25;;;1305.90;1100.80;;;;;;5092191;28;20020;-62
2023/07/17 07:01:11;;;;;;;34.13;31.60;;;1306.30;1049.60;;;;;;5078147;28;20060;-63
2023/07/17 07:03:37;;;;;;;33.10;30.60;;;1306.50;1075.20;;;;;;5091629;28;20043;-63
2023/07/17 07:06:06;;;;;;;35.08;32.22;;;1331.60;1049.60;;;;;;5092057;28;20028;-63
2023/07/17 07:08:32;;;;;;;33.78;30.65;;;1356.80;1075.20;;;;;;5092326;28;20031;-63
2023/07/17 07:11:00;;;;;;;33.90;31.20;;;1356.80;1075.20;;;;;;5091283;28;20028;-63
2023/07/17 07:13:26;;;;;;;35.33;32.38;;;1356.80;1075.20;;;;;;5091881;28;20077;-64
2023/07/17 07:15:53;;;;;;;33.25;31.10;;;1306.30;1049.60;;;;;;5091959;28;20023;-63
2023/07/17 07:18:19;;;;;;;33.83;31.20;;;1306.50;1024.00;;;;;;5091694;28;20028;-63
2023/07/17 07:20:47;;;;;;;32.65;30.35;;;1356.90;1024.00;;;;;;5091409;28;20099;-64
2023/07/17 07:23:13;;;;;;;31.33;28.63;;;1331.90;998.40;;;;;;5092013;28;20016;-64
2023/07/17 07:25:39;;;;;;;30.45;28.13;;;1306.00;1024.00;;;;;;5091387;28;20037;-64
2023/07/17 07:28:05;;;;;;;28.63;26.73;;;1331.20;1024.00;;;;;;5091847;28;20024;-64
2023/07/17 07:30:31;;;;;;;30.98;28.17;;;1306.50;998.40;;;;;;5091609;28;20055;-64
2023/07/17 07:32:57;;;;;;;31.52;29.30;;;1306.50;998.40;;;;;;5091327;28;20039;-64
2023/07/17 07:35:23;;;;;;;28.15;26.17;;;1306.00;1024.00;;;;;;5091313;28;20023;-64
2023/07/17 07:37:48;;;;;;;28.10;25.77;;;1331.20;1024.00;;;;;;5091561;28;20024;-64
2023/07/17 07:40:15;;;;;;;27.33;25.52;;;1305.60;1024.00;;;;;;5091155;28;20031;-65
2023/07/17 07:42:41;;;;;;;26.70;24.75;;;1305.90;1024.00;;;;;;5091461;28;20040;-66
2023/07/17 07:45:07;;;;;;;23.60;21.73;;;1331.20;1024.00;;;;;;5090860;28;20020;-63
2023/07/17 07:47:33;;;;;;;27.50;25.45;;;1331.40;998.40;;;;;;5091058;28;20043;-62
2023/07/17 07:50:02;;;;;;;27.67;25.40;;;1305.70;998.40;;;;;;5089822;28;20356;-62
2023/07/17 07:52:27;;;;;;;28.13;25.85;;;1331.90;972.80;;;;;;5090985;28;20062;-63
2023/07/17 07:54:53;;;;;;;29.02;26.75;;;1357.10;998.40;;;;;;5090943;28;20549;-63
2023/07/17 07:57:19;;;;;;;28.10;25.50;;;1356.80;1024.00;;;;;;5090856;28;20052;-62
2023/07/17 07:59:45;;;;;;;30.48;27.70;;;1356.80;998.40;;;;;;5090673;28;20024;-63
2023/07/17 08:02:12;;;;;;;31.88;29.10;;;1357.20;998.40;;;;;;5090830;28;20028;-63
2023/07/17 08:04:38;;;;;;;31.38;28.80;;;1331.90;998.40;;;;;;5090525;28;20021;-62
2023/07/17 08:07:04;;;;;;;32.13;29.20;;;1331.90;972.80;;;;;;5090913;28;20024;-62
2023/07/17 08:09:30;;;;;;;30.88;28.13;;;1332.10;972.80;;;;;;5090618;28;20044;-63
2023/07/17 08:11:55;;;;;;;28.67;26.67;;;1356.80;998.40;;;;;;5090491;28;20465;-63
2023/07/17 08:14:21;;;;;;;31.42;29.05;;;1356.90;998.40;;;;;;5090652;28;20020;-61
2023/07/17 08:16:48;;;;;;;27.40;25.27;;;1331.20;1024.00;;;;;;5090520;28;20035;-62
2023/07/17 08:19:13;;;;;;;29.60;27.13;;;1306.00;998.40;;;;;;5090563;28;20024;-63
2023/07/17 08:21:39;;;;;;;28.55;26.15;;;1306.00;972.80;;;;;;5090587;28;20028;-62
2023/07/17 08:24:05;;;;;;;27.27;25.08;;;1280.00;1024.00;;;;;;5090612;28;20428;-62
2023/07/17 08:26:31;;;;;;;26.27;24.38;;;1203.60;1100.80;;;;;;5090179;28;20378;-63
2023/07/17 08:28:57;;;;;;;26.00;22.42;;;1152.60;1152.00;;;;;;5090290;28;20020;-64
2023/07/17 08:31:23;;;;;;;23.13;20.85;;;1100.90;1254.40;;;;;;5090325;28;20028;-62
2023/07/17 08:33:49;;;;;;;23.20;21.30;;;1076.10;1254.40;;;;;;5089743;28;20532;-61
2023/07/17 08:36:15;;;;;;;26.65;24.30;;;1050.10;1305.60;;;;;;5090214;28;20016;-60
2023/07/17 08:38:40;;;;;;;23.95;21.95;;;1049.80;1382.40;;;;;;5089989;28;20024;-61
2023/07/17 08:41:07;;;;;;;22.98;20.80;;;999.30;1356.80;;;;;;5090459;28;20025;-60
2023/07/17 08:43:34;;;;;;;23.38;21.10;;;999.10;1382.40;;;;;;5089968;28;20075;-62
2023/07/17 08:46:01;;;;;;;24.42;22.10;;;999.20;1382.40;;;;;;5089955;28;20020;-61
2023/07/17 08:48:28;;;;;;;24.08;21.70;;;998.70;1433.60;;;;;;5089529;28;20105;-62
2023/07/17 08:50:56;;;;;;;24.42;22.23;;;973.70;1408.00;;;;;;5090068;28;20016;-62
2023/07/17 08:53:24;;;;;;;24.05;21.67;;;973.70;1433.60;;;;;;5089723;28;20478;-62
2023/07/17 08:55:53;;;;;;;24.88;22.67;;;998.90;1459.20;;;;;;5089574;28;20024;-62
2023/07/17 08:58:20;;;;;;;25.92;23.52;;;998.90;1433.60;;;;;;5089347;28;20020;-62
2023/07/17 09:00:47;;;;;;;26.25;22.98;;;998.70;1459.20;;;;;;5089352;28;20024;-62
2023/07/17 09:03:13;;;;;;;26.33;23.77;;;973.70;1484.80;;;;;;5089267;28;20073;-62
2023/07/17 09:05:38;;;;;;;26.20;23.83;;;973.70;1433.60;;;;;;5089384;28;20036;-62
2023/07/17 09:08:04;;;;;;;25.77;23.27;;;973.60;1459.20;;;;;;5089794;28;20028;-63
2023/07/17 09:10:30;;;;;;;27.40;24.73;;;973.10;1510.40;;;;;;5086801;28;20069;-61
2023/07/17 09:12:58;;;;;;;27.60;24.20;;;973.20;1484.80;;;;;;5087502;28;20071;-62
2023/07/17 09:15:26;;;;;;;27.13;24.58;;;973.30;1459.20;;;;;;5088129;28;20035;-62
2023/07/17 09:17:52;;;;;;;26.17;23.77;;;972.80;1536.00;;;;;;5087811;28;20512;-62
2023/07/17 09:20:19;;;;;;;26.40;23.73;;;972.80;1510.40;;;;;;5087667;28;20625;-62
2023/07/17 09:22:46;;;;;;;25.63;23.20;;;972.90;1536.00;;;;;;5087221;28;20028;-62
2023/07/17 09:25:13;;;;;;;28.00;25.25;;;973.10;1536.00;;;;;;5087959;28;20021;-63
2023/07/17 09:27:49;;;;;;;24.92;22.38;;;973.50;1484.80;;;;;;5087246;28;20535;-62
2023/07/17 09:30:24;;;;;;;25.63;22.30;;;973.20;1484.80;;;;;;5087296;28;20591;-62
2023/07/17 09:32:50;;;;;;;24.17;21.50;;;973.10;1484.80;;;;;;5074563;28;20039;-62
2023/07/17 09:35:23;;;;;;;26.50;20.50;;;973.20;1536.00;;;;;;5085464;28;20016;-62
2023/07/17 09:37:49;;;;;;;;;;;973.20;1510.40;;;;;;5079377;28;20031;-62
2023/07/17 09:40:17;;;;;;;25.33;22.45;;;973.20;1510.40;;;;;;5082052;28;19912;-74
2023/07/17 09:42:55;;;;;;;27.67;21.20;;;973.40;1510.40;;;;;;5068712;28;20104;-61
2023/07/17 09:45:22;;;;;;;22.67;20.63;;;948.10;1484.80;;;;;;5068766;28;20082;-63
2023/07/17 09:47:51;;;;;;;23.65;21.48;;;973.10;1484.80;;;;;;5068051;28;20036;-62
2023/07/17 09:50:19;;;;;;;22.20;20.30;;;973.30;1484.80;;;;;;5068203;28;20032;-60
2023/07/17 09:52:45;;;;;;;23.00;20.85;;;973.40;1433.60;;;;;;5068419;28;20051;-66
2023/07/17 09:55:11;;;;;;;22.33;20.48;;;973.50;1459.20;;;;;;5073200;28;20032;-63
2023/07/17 09:57:38;;;;;;;22.58;20.60;;;973.50;1459.20;;;;;;5076974;28;20024;-62
2023/07/17 10:00:18;;;;;;;23.15;21.15;;;973.40;1459.20;;;;;;5086374;28;20286;-63
2023/07/17 10:02:59;;;;;;;22.25;20.13;;;973.50;1433.60;;;;;;5068368;28;20093;-73
2023/07/17 10:05:26;;;;;;;20.55;18.75;;;973.30;1433.60;;;;;;5083886;28;20109;-63
2023/07/17 10:07:54;;;;;;;21.35;19.55;;;973.20;1433.60;;;;;;5068466;28;20028;-62
2023/07/17 10:10:19;;;;;;;19.00;17.13;;;973.10;1433.60;;;;;;5067919;28;20027;-62
2023/07/17 10:12:46;;;;;;;21.70;19.60;;;973.30;1510.40;;;;;;5068153;28;20029;-63
2023/07/17 10:15:14;;;;;;;22.05;20.15;;;973.20;1433.60;;;;;;5072366;28;20062;-64
2023/07/17 10:17:40;;;;;;;22.30;19.15;;;973.30;1459.20;;;;;;5072549;28;20032;-62
2023/07/17 10:20:11;;;;;;;22.23;20.05;;;973.20;1433.60;;;;;;5072170;28;20082;-63
2023/07/17 10:22:44;;;;;;;23.88;21.48;;;973.10;1459.20;;;;;;5072558;28;20039;-64
2023/07/17 10:25:19;;;;;;;22.15;19.58;;;973.20;1459.20;;;;;;5073303;28;20025;-63
2023/07/17 10:28:10;;;;;;;22.40;20.20;;;973.10;1484.80;;;;;;5076634;28;20365;-63
2023/07/17 10:30:37;;;;;;;21.95;19.95;;;972.90;1510.40;;;;;;5070362;28;20031;-62
2023/07/17 10:33:13;;;;;;;22.67;20.63;;;972.90;1484.80;;;;;;5070538;28;20037;-66
2023/07/17 10:36:00;;;;;;;20.92;19.00;;;973.10;1510.40;;;;;;5070576;28;20075;-62
2023/07/17 10:38:30;;;;;;;21.42;19.35;;;948.00;1459.20;;;;;;5070354;28;20109;-69
2023/07/17 10:41:23;;;;;;;20.73;18.52;;;948.10;1484.80;;;;;;5070218;28;20067;-61
2023/07/17 10:44:03;;;;;;;19.27;17.48;;;972.80;1510.40;;;;;;5083627;28;20026;-67
2023/07/17 10:46:37;;;;;;;19.77;18.17;;;973.10;1510.40;;;;;;5081672;28;20252;-59
2023/07/17 10:49:08;;;;;;;19.80;18.10;;;973.00;1459.20;;;;;;5070381;28;20108;-60
2023/07/17 10:51:55;;;;;;;18.80;17.25;;;973.00;1459.20;;;;;;5069843;28;20048;-69
2023/07/17 10:54:24;;;;;;;19.52;17.33;;;973.10;1433.60;;;;;;5070275;28;20063;-61
2023/07/17 10:56:50;;;;;;;18.67;16.98;;;948.10;1433.60;;;;;;5088373;28;20474;-61
2023/07/17 10:59:19;;;;;;;18.27;16.63;;;948.00;1459.20;;;;;;5087242;28;20437;-70
2023/07/17 11:01:46;;;;;;;18.83;16.45;;;972.90;1484.80;;;;;;5071588;28;20021;-61
2023/07/17 11:04:11;;;;;;;17.90;16.02;;;947.90;1459.20;;;;;;5090495;28;20024;-61
2023/07/17 11:06:37;;;;;;;18.27;16.58;;;948.10;1484.80;;;;;;5091256;28;20036;-61
2023/07/17 11:09:03;;;;;;;19.70;17.83;;;947.90;1459.20;;;;;;5083436;28;20028;-59
2023/07/17 11:11:31;;;;;;;22.23;17.17;;;948.10;1459.20;;;;;;5081837;28;20082;-61
2023/07/17 11:13:58;;;;;;;17.35;15.68;;;947.90;1433.60;;;;;;5091385;28;20535;-61
2023/07/17 11:16:24;;;;;;;16.00;14.52;;;948.10;1459.20;;;;;;5091414;28;20103;-61
2023/07/17 11:18:51;;;;;;;15.80;14.40;;;947.90;1433.60;;;;;;5091305;28;20124;-60
2023/07/17 11:21:22;;;;;;;17.45;15.82;;;947.60;1433.60;;;;;;5073368;28;20090;-72
2023/07/17 11:23:55;;;;;;;16.17;14.73;;;947.80;1459.20;;;;;;5071841;28;20036;-61
2023/07/17 11:26:25;;;;;;;16.35;14.85;;;948.10;1433.60;;;;;;5071102;28;20086;-64
2023/07/17 11:28:53;;;;;;;16.75;15.18;;;947.80;1433.60;;;;;;5070765;28;20078;-59
2023/07/17 11:31:30;;;;;;;15.93;14.52;;;948.10;1408.00;;;;;;5070315;28;20036;-61
2023/07/17 11:34:00;;;;;;;15.88;14.45;;;947.90;1433.60;;;;;;5070863;28;20031;-62
2023/07/17 11:36:38;;;;;;;20.23;15.75;;;947.60;1433.60;;;;;;5070570;28;20035;-61
2023/07/17 11:39:22;;;;;;;18.38;16.75;;;948.10;1484.80;;;;;;5070827;28;20029;-66
2023/07/17 11:41:54;;;;;;;18.73;15.07;;;948.10;1459.20;;;;;;5072542;28;20032;-63
2023/07/17 11:44:29;;;;;;;18.90;16.60;;;947.80;1433.60;;;;;;5074874;28;20108;-60
2023/07/17 11:47:06;;;;;;;17.88;16.00;;;947.90;1433.60;;;;;;5070352;28;20052;-67
2023/07/17 11:49:34;;;;;;;17.60;15.93;;;948.10;1484.80;;;;;;5070647;28;20031;-68
2023/07/17 11:52:00;;;;;;;17.30;15.80;;;947.70;1459.20;;;;;;5070292;28;20060;-61
2023/07/17 11:54:44;;;;;;;17.95;16.17;;;947.70;1459.20;;;;;;5070089;28;20074;-61
2023/07/17 11:57:10;;;;;;;19.77;17.33;;;947.70;1459.20;;;;;;5072142;28;20024;-62